Richmond Hill, Canada
Current Conditions -  °F | °C
As of 1:00 PM on Friday 24 Oct 2014 (Local Time) from CYKZ Reporting Station
Scattered Clouds Scattered Clouds  
Wind Chill: 54°   Ceiling: Unl
Heat Index: 54°   Visibility: 15mi
Dew Point: 37°   Wind: 6mph
Humidity: 54%   Direction: 300°WNW
Pressure: 30.02"   Gusts: NA
Location:  43.85°N, 79.38°W
Report Text: CYKZ 241700Z 30005KT 15SM SCT260 12/03 A3002 RMK CI2 SLP171
Loading
Personal Weather Stations






























Interactive Weather Map
Tropical Storm Tracking
New forecast layout! Learn more

10-Day Weather Forecast

Advertisements
Track Severe Weather on mobile